Tripp, South Dakota
Current Conditions -  °F | °C
As of 2:53 PM on Monday 24 Nov 2014 (Local Time) from KMHE Reporting Station
Clear Clear  
Wind Chill: 16°   Ceiling: Unl
Heat Index: 29°   Visibility: 10mi
Dew Point: 14°   Wind: 20mph
Humidity: 54%   Direction: 320°NW
Pressure: 29.88"   Gusts: 33mph
Location:  43.23°N, 97.97°W
Report Text: KMHE 242053Z AUTO 32017G29KT 10SM CLR M02/M10 A2988 RMK AO2 PK WND 33031/2000 SLP135 T10171100 53024
Loading
Personal Weather Stations






























Interactive Weather Map New forecast layout! Learn more

10-Day Weather Forecast

Advertisements
Track Severe Weather on mobile